createdAt,value
2023-01-20T00:01:33.163Z,3.30
2023-01-20T00:04:01.576Z,3.60
2023-01-20T00:06:29.851Z,3.70
2023-01-20T00:09:00.232Z,3.30
2023-01-20T00:11:30.454Z,3.58
2023-01-20T00:14:00.175Z,3.47
2023-01-20T00:16:29.144Z,4.05
2023-01-20T00:18:59.139Z,4.30
2023-01-20T00:21:27.141Z,3.88
2023-01-20T00:23:55.791Z,3.97
2023-01-20T00:26:25.608Z,3.30
2023-01-20T00:28:57.639Z,3.63
2023-01-20T00:31:27.505Z,3.90
2023-01-20T00:33:58.676Z,3.80
2023-01-20T00:36:29.047Z,3.50
2023-01-20T00:38:57.239Z,3.67
2023-01-20T00:41:25.690Z,3.55
2023-01-20T00:43:53.784Z,3.33
2023-01-20T00:46:23.018Z,4.13
2023-01-20T00:48:51.205Z,3.35
2023-01-20T00:51:20.861Z,3.22
2023-01-20T00:53:48.988Z,3.83
2023-01-20T00:56:17.126Z,3.80
2023-01-20T00:58:46.346Z,3.78
2023-01-20T01:01:15.157Z,3.95
2023-01-20T01:03:43.599Z,3.13
2023-01-20T01:06:14.407Z,3.20
2023-01-20T01:08:45.602Z,3.95
2023-01-20T01:11:14.109Z,3.55
2023-01-20T01:13:42.761Z,3.25
2023-01-20T01:16:13.084Z,3.30
2023-01-20T01:18:41.662Z,3.90
2023-01-20T01:21:11.468Z,4.13
2023-01-20T01:23:39.548Z,3.90
2023-01-20T01:26:10.073Z,3.70
2023-01-20T01:28:38.284Z,2.85
2023-01-20T01:31:08.505Z,3.85
2023-01-20T01:33:36.975Z,3.47
2023-01-20T01:36:05.953Z,2.92
2023-01-20T01:38:34.160Z,3.65
2023-01-20T01:41:02.836Z,3.40
2023-01-20T01:43:34.769Z,4.15
2023-01-20T01:46:03.259Z,4.20
2023-01-20T01:48:37.578Z,3.50
2023-01-20T01:51:08.793Z,4.00
2023-01-20T01:53:42.754Z,3.30
2023-01-20T01:56:12.709Z,3.90
2023-01-20T01:58:46.750Z,3.47
2023-01-20T02:01:15.092Z,4.20
2023-01-20T02:03:50.569Z,3.92
2023-01-20T02:06:20.912Z,3.58
2023-01-20T02:08:49.893Z,3.95
2023-01-20T02:11:17.955Z,4.35
2023-01-20T02:13:47.640Z,3.50
2023-01-20T02:16:21.757Z,3.80
2023-01-20T02:19:05.459Z,4.07
2023-01-20T02:22:13.420Z,3.75
2023-01-20T02:25:04.916Z,3.45
2023-01-20T02:27:58.674Z,3.58
2023-01-20T02:33:14.011Z,3.35
2023-01-20T02:35:46.974Z,3.38
2023-01-20T02:38:25.287Z,3.38
2023-01-20T02:41:01.337Z,3.42
2023-01-20T02:43:35.445Z,3.40
2023-01-20T02:46:12.554Z,3.58
2023-01-20T02:48:47.507Z,3.15
2023-01-20T02:51:20.529Z,3.30
2023-01-20T02:53:52.582Z,3.28
2023-01-20T02:56:25.892Z,3.10
2023-01-20T03:01:27.360Z,3.25
2023-01-20T03:04:01.047Z,3.17
2023-01-20T03:06:35.781Z,3.72
2023-01-20T03:09:07.973Z,3.30
2023-01-20T03:11:39.978Z,3.03
2023-01-20T03:14:11.930Z,3.03
2023-01-20T03:16:41.430Z,3.63
2023-01-20T03:19:12.262Z,3.38
2023-01-20T03:21:40.933Z,3.47
2023-01-20T03:24:09.872Z,3.22
2023-01-20T03:26:38.938Z,3.25
2023-01-20T03:29:09.235Z,3.15
2023-01-20T03:31:40.748Z,3.20
2023-01-20T03:34:13.676Z,3.13
2023-01-20T03:36:44.818Z,2.90
2023-01-20T03:39:13.401Z,2.85
2023-01-20T03:42:05.994Z,2.70
2023-01-20T03:44:45.919Z,2.75
2023-01-20T03:47:21.222Z,2.92
2023-01-20T03:49:56.784Z,2.47
2023-01-20T03:52:47.773Z,2.92
2023-01-20T03:55:21.356Z,2.60
2023-01-20T03:57:55.157Z,2.60
2023-01-20T04:00:26.803Z,2.40
2023-01-20T04:03:01.039Z,2.60
2023-01-20T04:05:31.072Z,2.30
2023-01-20T04:08:03.102Z,2.30
2023-01-20T04:10:34.034Z,2.40
2023-01-20T04:13:02.144Z,2.80
2023-01-20T04:15:35.482Z,2.85
2023-01-20T04:18:14.779Z,2.47
2023-01-20T04:20:45.793Z,2.72
2023-01-20T04:23:21.637Z,2.50
2023-01-20T04:25:49.777Z,2.80
2023-01-20T04:28:18.232Z,2.55
2023-01-20T04:30:49.257Z,2.58
2023-01-20T04:33:17.465Z,2.95
2023-01-20T04:35:47.013Z,2.65
2023-01-20T04:38:15.461Z,2.40
2023-01-20T04:40:43.985Z,3.08
2023-01-20T04:43:12.434Z,2.55
2023-01-20T04:45:42.323Z,2.47
2023-01-20T04:48:10.968Z,2.33
2023-01-20T04:50:40.716Z,2.53
2023-01-20T04:53:13.482Z,2.40
2023-01-20T04:55:41.596Z,2.55
2023-01-20T04:58:10.779Z,2.65
2023-01-20T05:00:39.067Z,2.30
2023-01-20T05:03:07.948Z,2.53
2023-01-20T05:05:36.454Z,2.75
2023-01-20T05:08:05.302Z,2.45
2023-01-20T05:10:35.174Z,2.63
2023-01-20T05:13:03.351Z,2.80
2023-01-20T05:15:31.580Z,2.80
2023-01-20T05:17:59.687Z,2.78
2023-01-20T05:20:27.900Z,2.60
2023-01-20T05:22:55.958Z,2.50
2023-01-20T05:25:24.132Z,2.78
2023-01-20T05:27:53.799Z,2.40
2023-01-20T05:30:22.097Z,2.55
2023-01-20T05:32:50.807Z,2.60
2023-01-20T05:35:19.538Z,2.90
2023-01-20T05:37:47.631Z,2.50
2023-01-20T05:40:15.860Z,2.40
2023-01-20T05:42:43.988Z,2.50
2023-01-20T05:45:13.797Z,2.55
2023-01-20T05:47:42.130Z,2.55
2023-01-20T05:50:11.655Z,2.33
2023-01-20T05:52:39.896Z,2.55
2023-01-20T05:55:08.385Z,2.65
2023-01-20T05:57:36.475Z,2.55
2023-01-20T06:00:07.924Z,2.40
2023-01-20T06:02:38.344Z,2.50
2023-01-20T06:05:07.724Z,2.90
2023-01-20T06:07:35.859Z,2.50
2023-01-20T06:10:04.429Z,2.72
2023-01-20T06:12:32.788Z,2.55
2023-01-20T06:15:00.888Z,2.53
2023-01-20T06:17:29.048Z,2.88
2023-01-20T06:19:58.633Z,2.80
2023-01-20T06:22:27.073Z,2.55
2023-01-20T06:24:55.379Z,2.97
2023-01-20T06:27:23.554Z,2.63
2023-01-20T06:29:51.943Z,2.70
2023-01-20T06:32:20.095Z,2.63
2023-01-20T06:34:48.271Z,2.97
2023-01-20T06:37:17.775Z,2.80
2023-01-20T06:39:46.203Z,2.85
2023-01-20T06:42:14.698Z,2.92
2023-01-20T06:44:42.727Z,2.83
2023-01-20T06:47:11.419Z,3.05
2023-01-20T06:49:39.544Z,3.25
2023-01-20T06:52:08.531Z,3.22
2023-01-20T06:54:38.067Z,3.10
2023-01-20T06:57:07.005Z,3.50
2023-01-20T06:59:35.188Z,4.90
2023-01-20T07:02:03.587Z,9.45
2023-01-20T07:04:31.745Z,10.23
2023-01-20T07:06:59.844Z,11.15
2023-01-20T07:09:27.934Z,11.30
2023-01-20T07:11:57.532Z,11.25
2023-01-20T07:14:25.864Z,11.57
2023-01-20T07:16:53.984Z,11.43
2023-01-20T07:19:22.215Z,11.40
2023-01-20T07:21:50.415Z,11.20
2023-01-20T07:24:18.944Z,10.55
2023-01-20T07:26:47.004Z,10.63
2023-01-20T07:29:17.905Z,11.32
2023-01-20T07:31:46.945Z,10.25
2023-01-20T07:34:15.132Z,9.98
2023-01-20T07:36:46.027Z,10.98
2023-01-20T07:39:15.492Z,9.73
2023-01-20T07:41:48.804Z,10.18
2023-01-20T07:44:18.402Z,9.23
2023-01-20T07:46:46.554Z,9.15
2023-01-20T07:49:14.719Z,8.88
2023-01-20T07:51:43.596Z,9.43
2023-01-20T07:54:13.228Z,9.73
2023-01-20T07:56:41.448Z,9.20
2023-01-20T07:59:11.815Z,9.25
2023-01-20T08:01:41.575Z,8.80
2023-01-20T08:04:09.755Z,8.57
2023-01-20T08:06:37.872Z,8.05
2023-01-20T08:09:05.995Z,8.80
2023-01-20T08:11:34.087Z,8.95
2023-01-20T08:14:02.190Z,8.10
2023-01-20T08:16:30.280Z,8.85
2023-01-20T08:19:00.055Z,8.10
2023-01-20T08:21:30.580Z,7.97
2023-01-20T08:23:59.810Z,8.40
2023-01-20T08:26:29.574Z,8.18
2023-01-20T08:29:03.201Z,8.85
2023-01-20T08:31:31.854Z,8.27
2023-01-20T08:34:01.789Z,8.02
2023-01-20T08:36:34.774Z,7.80
2023-01-20T08:41:36.385Z,7.35
2023-01-20T08:44:06.608Z,7.72
2023-01-20T08:46:35.539Z,8.48
2023-01-20T08:49:07.354Z,7.80
2023-01-20T08:51:35.848Z,8.00
2023-01-20T08:54:04.140Z,7.90
2023-01-20T08:56:34.073Z,7.00
2023-01-20T08:59:02.652Z,7.72
2023-01-20T09:01:33.704Z,7.90
2023-01-20T09:04:06.570Z,7.78
2023-01-20T09:06:42.428Z,8.05
2023-01-20T09:09:13.017Z,8.27
2023-01-20T09:11:43.213Z,8.43
2023-01-20T09:14:11.399Z,7.68
2023-01-20T09:16:39.796Z,6.97
2023-01-20T09:19:08.041Z,7.35
2023-01-20T09:21:36.183Z,7.38
2023-01-20T09:24:06.508Z,7.13
2023-01-20T09:26:41.656Z,7.90
2023-01-20T09:29:12.473Z,7.30
2023-01-20T09:31:45.093Z,6.70
2023-01-20T09:34:19.059Z,6.90
2023-01-20T09:36:50.388Z,6.55
2023-01-20T09:39:54.904Z,7.30
2023-01-20T09:42:50.543Z,7.30
2023-01-20T09:45:25.849Z,7.45
2023-01-20T09:48:03.764Z,6.28
2023-01-20T09:51:00.351Z,6.95
2023-01-20T09:53:46.884Z,6.75
2023-01-20T09:56:19.086Z,6.93
2023-01-20T09:58:53.193Z,6.43
2023-01-20T10:01:30.909Z,6.68
2023-01-20T10:04:05.061Z,6.93
2023-01-20T10:06:38.306Z,6.80
2023-01-20T10:09:17.953Z,7.00
2023-01-20T10:11:48.528Z,6.32
2023-01-20T10:14:22.960Z,6.45
2023-01-20T10:16:55.446Z,7.15
2023-01-20T10:19:31.022Z,6.03
2023-01-20T10:22:09.602Z,6.55
2023-01-20T10:24:45.380Z,6.28
2023-01-20T10:27:14.906Z,6.63
2023-01-20T10:29:48.460Z,6.32
2023-01-20T10:32:25.683Z,6.38
2023-01-20T10:34:56.792Z,6.75
2023-01-20T10:37:25.547Z,5.78
2023-01-20T10:39:58.026Z,6.05
2023-01-20T10:42:28.576Z,6.78
2023-01-20T10:44:57.100Z,6.13
2023-01-20T10:47:40.349Z,6.47
2023-01-20T10:50:39.252Z,5.82
2023-01-20T10:53:34.056Z,6.75
2023-01-20T10:56:33.279Z,5.78
2023-01-20T10:59:07.433Z,5.75
2023-01-20T11:01:37.118Z,6.25
2023-01-20T11:04:05.520Z,6.43
2023-01-20T11:06:34.489Z,6.00
2023-01-20T11:09:17.330Z,5.93
2023-01-20T11:11:45.548Z,6.18
2023-01-20T11:14:15.422Z,6.13
2023-01-20T11:16:46.718Z,6.05
2023-01-20T11:19:15.153Z,5.80
2023-01-20T11:21:43.295Z,5.22
2023-01-20T11:24:34.687Z,5.75
2023-01-20T11:27:07.275Z,5.53
2023-01-20T11:29:42.408Z,5.82
2023-01-20T11:32:27.849Z,5.78
2023-01-20T11:34:57.214Z,5.22
2023-01-20T11:37:27.789Z,5.50
2023-01-20T11:40:02.345Z,5.82
2023-01-20T11:42:44.820Z,5.68
2023-01-20T11:45:32.518Z,6.07
2023-01-20T11:48:07.423Z,5.18
2023-01-20T11:50:40.727Z,5.65
2023-01-20T11:53:21.892Z,5.65
2023-01-20T11:55:52.922Z,4.97
2023-01-20T11:58:22.895Z,5.00
2023-01-20T12:00:53.810Z,5.30
2023-01-20T12:03:56.642Z,4.80
2023-01-20T12:06:28.829Z,5.38
2023-01-20T12:09:02.404Z,4.93
2023-01-20T12:11:35.197Z,4.85
2023-01-20T12:14:28.594Z,4.93
2023-01-20T12:17:14.451Z,4.72
2023-01-20T12:19:57.437Z,5.60
2023-01-20T12:22:33.087Z,4.30
2023-01-20T12:25:13.732Z,4.80
2023-01-20T12:27:49.470Z,4.90
2023-01-20T12:30:42.358Z,4.60
2023-01-20T12:33:21.754Z,4.78
2023-01-20T12:36:23.521Z,5.13
2023-01-20T12:39:16.115Z,4.80
2023-01-20T12:42:10.617Z,4.78
2023-01-20T12:44:46.191Z,4.60
2023-01-20T12:47:29.141Z,4.55
2023-01-20T12:50:14.213Z,4.78
2023-01-20T12:52:54.932Z,4.60
2023-01-20T12:55:38.718Z,4.55
2023-01-20T12:58:20.336Z,4.57
2023-01-20T13:01:07.559Z,4.80
2023-01-20T13:04:12.768Z,4.35
2023-01-20T13:06:57.724Z,4.00
2023-01-20T13:09:50.574Z,4.57
2023-01-20T13:12:34.395Z,4.03
2023-01-20T13:15:15.949Z,4.70
2023-01-20T13:17:59.016Z,4.20
2023-01-20T13:20:29.649Z,4.28
2023-01-20T13:23:04.231Z,4.63
2023-01-20T13:25:34.708Z,4.25
2023-01-20T13:28:04.218Z,4.50
2023-01-20T13:30:44.105Z,4.32
2023-01-20T13:33:18.632Z,4.45
2023-01-20T13:35:51.014Z,4.15
2023-01-20T13:38:23.270Z,4.72
2023-01-20T13:40:56.544Z,4.57
2023-01-20T13:43:57.717Z,4.30
2023-01-20T13:46:48.728Z,3.97
2023-01-20T13:49:24.201Z,4.43
2023-01-20T13:51:52.323Z,3.72
2023-01-20T13:54:51.976Z,4.35
2023-01-20T13:57:46.823Z,4.53
2023-01-20T14:00:19.741Z,3.85
2023-01-20T14:02:49.696Z,4.15
2023-01-20T14:05:26.141Z,4.28
2023-01-20T14:07:54.283Z,4.40
2023-01-20T14:10:23.998Z,4.15
2023-01-20T14:12:52.152Z,4.03
2023-01-20T14:15:32.044Z,4.30
2023-01-20T14:18:01.595Z,4.45
2023-01-20T14:20:30.944Z,4.13
2023-01-20T14:23:30.825Z,4.25
2023-01-20T14:26:03.471Z,4.32
2023-01-20T14:28:31.930Z,4.68
2023-01-20T14:31:19.826Z,4.85
2023-01-20T14:33:57.498Z,3.97
2023-01-20T14:36:27.579Z,4.25
2023-01-20T14:38:59.154Z,4.75
2023-01-20T14:41:34.030Z,5.00
2023-01-20T14:44:03.246Z,4.60
2023-01-20T14:46:34.071Z,4.88
2023-01-20T14:49:04.769Z,4.57
2023-01-20T14:51:34.571Z,4.82
2023-01-20T14:54:38.657Z,5.15
2023-01-20T14:59:47.061Z,4.50
2023-01-20T15:02:30.697Z,5.47
2023-01-20T15:07:27.695Z,4.82
2023-01-20T15:10:03.063Z,4.75
2023-01-20T15:12:40.336Z,4.65
2023-01-20T15:15:14.714Z,4.80
2023-01-20T15:18:04.476Z,5.32
2023-01-20T15:20:33.877Z,4.95
2023-01-20T15:23:02.187Z,5.30
2023-01-20T15:25:30.660Z,4.88
2023-01-20T15:28:00.256Z,4.85
2023-01-20T15:30:29.849Z,5.28
2023-01-20T15:32:57.997Z,5.35
2023-01-20T15:35:26.952Z,5.10
2023-01-20T15:37:56.813Z,4.75
2023-01-20T15:40:26.933Z,4.90
2023-01-20T15:42:56.935Z,4.95
2023-01-20T15:45:26.813Z,4.40
2023-01-20T15:47:55.161Z,5.20
2023-01-20T15:50:26.677Z,4.72
2023-01-20T15:52:54.971Z,5.13
2023-01-20T15:55:23.122Z,4.80
2023-01-20T15:57:53.146Z,4.95
2023-01-20T16:00:23.364Z,4.72
2023-01-20T16:02:52.964Z,5.00
2023-01-20T16:05:21.111Z,5.35
2023-01-20T16:07:50.347Z,5.10
2023-01-20T16:10:19.630Z,4.88
2023-01-20T16:12:48.540Z,5.25
2023-01-20T16:15:18.636Z,5.68
2023-01-20T16:17:46.921Z,5.25
2023-01-20T16:20:21.828Z,5.10
2023-01-20T16:22:50.224Z,4.68
2023-01-20T16:25:18.688Z,5.25
2023-01-20T16:27:46.803Z,4.72
2023-01-20T16:30:17.590Z,5.00
2023-01-20T16:32:46.997Z,4.80
2023-01-20T16:35:16.305Z,4.90
2023-01-20T16:37:47.574Z,4.68
2023-01-20T16:40:17.918Z,4.57
2023-01-20T16:42:48.000Z,4.85
2023-01-20T16:45:24.948Z,4.78
2023-01-20T16:47:53.623Z,4.70
2023-01-20T16:50:23.240Z,4.57
2023-01-20T16:52:52.778Z,4.90
2023-01-20T16:55:21.571Z,4.80
2023-01-20T16:57:49.714Z,4.03
2023-01-20T17:00:19.579Z,4.50
2023-01-20T17:02:51.401Z,3.90
2023-01-20T17:05:22.514Z,4.70
2023-01-20T17:07:52.513Z,4.72
2023-01-20T17:10:21.353Z,4.30
2023-01-20T17:12:49.656Z,3.92
2023-01-20T17:15:18.040Z,4.20
2023-01-20T17:17:49.312Z,4.43
2023-01-20T17:20:17.940Z,4.53
2023-01-20T17:22:46.231Z,4.40
2023-01-20T17:25:17.868Z,4.53
2023-01-20T17:27:46.509Z,4.40
2023-01-20T17:30:16.515Z,4.22
2023-01-20T17:32:48.221Z,4.30
2023-01-20T17:35:16.961Z,4.72
2023-01-20T17:37:45.350Z,4.85
2023-01-20T17:40:16.152Z,4.30
2023-01-20T17:42:44.707Z,4.10
2023-01-20T17:45:13.367Z,4.65
2023-01-20T17:47:41.568Z,4.32
2023-01-20T17:50:10.818Z,4.25
2023-01-20T17:52:39.237Z,4.07
2023-01-20T17:55:08.340Z,3.97
2023-01-20T17:57:38.013Z,4.15
2023-01-20T18:00:07.553Z,4.25
2023-01-20T18:02:36.299Z,4.75
2023-01-20T18:05:05.484Z,4.18
2023-01-20T18:07:33.908Z,4.63
2023-01-20T18:10:02.298Z,4.40
2023-01-20T18:12:30.658Z,4.63
2023-01-20T18:15:00.509Z,4.78
2023-01-20T18:17:28.660Z,4.90
2023-01-20T18:19:56.959Z,4.32
2023-01-20T18:22:25.559Z,4.50
2023-01-20T18:24:59.593Z,4.78
2023-01-20T18:27:28.429Z,4.38
2023-01-20T18:29:56.651Z,4.68
2023-01-20T18:32:26.207Z,4.57
2023-01-20T18:34:54.859Z,4.30
2023-01-20T18:37:23.012Z,4.20
2023-01-20T18:39:51.095Z,4.45
2023-01-20T18:42:19.653Z,4.93
2023-01-20T18:44:48.013Z,4.45
2023-01-20T18:47:16.313Z,4.32
2023-01-20T18:49:46.109Z,4.53
2023-01-20T18:52:14.401Z,4.18
2023-01-20T18:54:42.479Z,3.97
2023-01-20T18:57:11.361Z,4.30
2023-01-20T18:59:53.559Z,4.07
2023-01-20T19:02:31.072Z,4.28
2023-01-20T19:05:18.925Z,4.28
2023-01-20T19:08:08.222Z,4.28
2023-01-20T19:11:09.728Z,4.07
2023-01-20T19:13:42.453Z,4.18
2023-01-20T19:16:14.059Z,4.32
2023-01-20T19:18:42.919Z,4.10
2023-01-20T19:21:15.747Z,3.83
2023-01-20T19:23:44.696Z,3.83
2023-01-20T19:26:15.324Z,4.07
2023-01-20T19:28:43.574Z,4.13
2023-01-20T19:31:14.465Z,4.07
2023-01-20T19:33:43.334Z,3.55
2023-01-20T19:36:15.447Z,3.80
2023-01-20T19:38:44.718Z,3.88
2023-01-20T19:41:15.162Z,3.83
2023-01-20T19:43:45.854Z,3.72
2023-01-20T19:46:16.083Z,3.88
2023-01-20T19:48:45.253Z,4.07
2023-01-20T19:51:17.111Z,3.80
2023-01-20T19:53:45.476Z,3.85
2023-01-20T19:56:16.057Z,3.95
2023-01-20T19:58:46.368Z,4.10
2023-01-20T20:01:16.889Z,4.20
2023-01-20T20:03:45.867Z,3.88
2023-01-20T20:06:28.084Z,3.97
2023-01-20T20:08:59.325Z,4.00
2023-01-20T20:11:28.049Z,3.88
2023-01-20T20:13:57.154Z,4.00
2023-01-20T20:16:27.873Z,4.00
2023-01-20T20:18:57.217Z,3.95
2023-01-20T20:21:28.215Z,4.15
2023-01-20T20:23:59.125Z,3.88
2023-01-20T20:26:31.084Z,4.10
2023-01-20T20:29:07.676Z,3.97
2023-01-20T20:31:37.855Z,4.00
2023-01-20T20:34:07.016Z,3.90
2023-01-20T20:36:37.196Z,3.90
2023-01-20T20:39:05.786Z,3.80
2023-01-20T20:41:35.443Z,4.10
2023-01-20T20:44:05.215Z,4.13
2023-01-20T20:46:34.104Z,4.38
2023-01-20T20:49:03.113Z,4.07
2023-01-20T20:51:33.354Z,4.05
2023-01-20T20:54:04.130Z,4.18
2023-01-20T20:56:33.135Z,4.05
2023-01-20T20:59:03.702Z,4.00
2023-01-20T21:01:34.074Z,4.30
2023-01-20T21:04:06.974Z,4.15
2023-01-20T21:06:35.410Z,4.10
2023-01-20T21:09:05.185Z,3.65
2023-01-20T21:11:33.823Z,4.13
2023-01-20T21:14:02.033Z,4.20
2023-01-20T21:16:30.767Z,3.88
2023-01-20T21:19:01.407Z,4.07
2023-01-20T21:21:30.180Z,4.40
2023-01-20T21:23:59.867Z,4.43
2023-01-20T21:26:31.017Z,4.45
2023-01-20T21:29:01.979Z,4.55
2023-01-20T21:31:31.930Z,4.18
2023-01-20T21:34:01.057Z,4.32
2023-01-20T21:36:34.627Z,4.32
2023-01-20T21:39:03.131Z,4.63
2023-01-20T21:41:32.869Z,5.20
2023-01-20T21:44:18.667Z,4.68
2023-01-20T21:46:47.179Z,4.65
2023-01-20T21:49:33.072Z,4.45
2023-01-20T21:52:17.623Z,4.70
2023-01-20T21:54:45.956Z,4.72
2023-01-20T21:57:15.520Z,4.68
2023-01-20T21:59:45.671Z,5.03
2023-01-20T22:02:15.184Z,4.68
2023-01-20T22:04:43.711Z,5.07
2023-01-20T22:07:11.923Z,4.97
2023-01-20T22:09:40.565Z,5.07
2023-01-20T22:12:09.923Z,4.80
2023-01-20T22:14:40.033Z,4.47
2023-01-20T22:17:10.942Z,4.82
2023-01-20T22:19:39.536Z,5.07
2023-01-20T22:22:08.221Z,4.68
2023-01-20T22:24:36.879Z,5.10
2023-01-20T22:27:05.170Z,4.80
2023-01-20T22:29:34.208Z,4.93
2023-01-20T22:32:04.931Z,4.72
2023-01-20T22:34:33.515Z,5.03
2023-01-20T22:37:01.769Z,4.95
2023-01-20T22:39:30.036Z,5.88
2023-01-20T22:41:58.243Z,5.85
2023-01-20T22:44:26.320Z,5.10
2023-01-20T22:46:54.460Z,5.22
2023-01-20T22:49:23.975Z,5.70
2023-01-20T22:51:54.795Z,5.32
2023-01-20T22:54:23.152Z,5.28
2023-01-20T22:56:51.315Z,5.38
2023-01-20T22:59:19.407Z,5.30
2023-01-20T23:01:47.676Z,5.45
2023-01-20T23:04:15.966Z,5.15
2023-01-20T23:06:45.509Z,5.63
2023-01-20T23:09:14.469Z,5.30
2023-01-20T23:11:43.256Z,5.22
2023-01-20T23:14:13.433Z,5.70
2023-01-20T23:16:41.909Z,5.50
2023-01-20T23:19:10.895Z,5.25
2023-01-20T23:21:39.492Z,5.60
2023-01-20T23:24:09.576Z,5.35
2023-01-20T23:26:37.652Z,5.22
2023-01-20T23:29:05.775Z,5.13
2023-01-20T23:31:35.282Z,5.07
2023-01-20T23:34:06.835Z,5.35
2023-01-20T23:36:36.642Z,5.70
2023-01-20T23:39:04.953Z,5.47
2023-01-20T23:41:34.388Z,5.65
2023-01-20T23:44:03.439Z,5.80
2023-01-20T23:46:31.580Z,6.07
2023-01-20T23:48:59.951Z,5.68
2023-01-20T23:51:28.106Z,5.53
2023-01-20T23:53:56.825Z,5.72
2023-01-20T23:56:25.997Z,5.20
2023-01-20T23:58:55.520Z,5.38
